• Join FlightAware (Why Join?)
  • Login
  • US Flag 
11:12PM EDT


 

Airport Tracker/Info


-or-


 

Live Flight TrackerFlight Track Log ✈ UAL341 ✈ 24-Jun-2013 ✈ KSAN - KSFO

Flight Track Log - Related Links

Times and Time Zones

All times are in EDT time to prevent confusion due to time zone crossing. See the UAL341 flight status page for this flight to view local times or setup timezone preferences in your user account.

Time Position Orientation Groundspeed Altitude Reporting Facility
EDT Latitude Longitude Course Direction KTS MPH feet Rate Location/Type
09:39AM 32.7500 -117.2167 320° Northwest 169 194 1,300  Level Southern California TRACON
09:40AM 32.7833 -117.2667 308° West 229 264 2,900 2,460 Climbing Southern California TRACON
09:41AM 32.8358 -117.3667 302° West 250 288 7,200 2,880 Climbing Los Angeles Center
09:42AM 32.9860 -117.5456 309° West  Level FlightAware Approximate
09:42AM 32.8831 -117.4383 308° West 268 308 10,200  Level Los Angeles Center
09:43AM 33.0496 -117.6361 310° West  Level FlightAware Approximate
09:43AM 32.9506 -117.5014 322° Northwest 304 350 11,800  Level Los Angeles Center
09:44AM 33.1112 -117.7279 320° Northwest  Level FlightAware Approximate
09:44AM 33.0169 -117.5822 314° West 341 392 14,100  Level Los Angeles Center
09:45AM 33.0764 -117.6739 308° West 346 398 16,000 1,860 Climbing Los Angeles Center
09:46AM 33.1383 -117.7711 307° West 362 417 18,000 1,740 Climbing Los Angeles Center
09:47AM 33.1953 -117.8736 304° West 369 425 19,600 1,740 Climbing Los Angeles Center
09:48AM 33.2697 -117.9978 306° West 382 440 21,600 1,740 Climbing Los Angeles Center
09:49AM 33.3414 -118.0975 311° West 390 449 23,200 1,380 Climbing Los Angeles Center
09:50AM 33.4142 -118.2000 310° West 399 459 24,500 1,200 Climbing Los Angeles Center
09:51AM 33.4883 -118.3042 311° West 406 467 25,800 1,200 Climbing Los Angeles Center
09:52AM 33.5628 -118.4131 309° West 414 476 27,000 1,260 Climbing Los Angeles Center
09:54AM 33.6425 -118.5244 311° West 429 494 28,400 1,200 Climbing Los Angeles Center
09:55AM 33.7211 -118.6350 311° West 429 494 29,600 1,020 Climbing Los Angeles Center
09:56AM 33.7986 -118.7467 310° West 432 497 30,600 1,020 Climbing Los Angeles Center
09:57AM 33.8783 -118.8583 311° West 437 503 31,700 1,140 Climbing Los Angeles Center
09:58AM 33.9564 -118.9697 310° West 435 501 33,000 1,320 Climbing Los Angeles Center
09:59AM 34.0475 -119.1036 309° West 431 496 34,500 1,200 Climbing Los Angeles Center
10:00AM 34.1231 -119.2128 310° West 425 489 35,600 720 Climbing Los Angeles Center
10:01AM 34.1981 -119.3200 310° West 419 482 36,000 180 Climbing Los Angeles Center
10:02AM 34.2722 -119.4278 310° West 417 480 36,000  Level Los Angeles Center
10:03AM 34.3461 -119.5369 309° West 420 483 36,000  Level Los Angeles Center
10:04AM 34.4211 -119.6461 310° West 421 484 36,000  Level Los Angeles Center
10:05AM 34.4961 -119.7550 310° West 421 484 36,000  Level Los Angeles Center
10:06AM 34.6439 -119.9178 318° Northwest 425 489 36,000  Level Oakland Center
10:07AM 34.7317 -120.0111 319° Northwest 420 483 36,000  Level Oakland Center
10:08AM 34.8181 -120.1069 318° Northwest 420 483 36,000  Level Oakland Center
10:10AM 34.9158 -120.2139 318° Northwest 419 482 36,000  Level Oakland Center
10:11AM 34.9906 -120.2986 317° Northwest 418 481 36,000  Level Oakland Center
10:12AM 35.0783 -120.3950 318° Northwest 420 483 36,000  Level Oakland Center
10:13AM 35.1631 -120.4925 317° Northwest 417 480 36,000  Level Oakland Center
10:14AM 35.2508 -120.5892 318° Northwest 417 480 36,000  Level Oakland Center
10:14AM 35.3092 -120.6533 318° Northwest 423 487 36,000  Level Los Angeles Center
10:15AM 35.3975 -120.7467 319° Northwest 423 487 36,000  Level Los Angeles Center
10:16AM 35.4936 -120.8281 325° Northwest 421 484 36,000  Level Los Angeles Center
10:17AM 35.5883 -120.9125 324° Northwest 421 484 36,000  Level Los Angeles Center
10:18AM 35.6800 -120.9942 324° Northwest 415 478 36,000  Level Los Angeles Center
10:19AM 35.7931 -121.0981 323° Northwest 420 483 36,000 -180 Level Los Angeles Center
10:20AM 35.8886 -121.1828 324° Northwest 422 486 35,700 -720 Descending Los Angeles Center
10:22AM 36.0189 -121.3036 323° Northwest 421 484 34,200 -1,740 Descending Oakland Center
10:23AM 36.1150 -121.3911 324° Northwest 425 489 31,500 -2,640 Descending Oakland Center
10:24AM 36.2114 -121.4772 324° Northwest 427 491 28,900 -1,920 Descending Oakland Center
10:25AM 36.3064 -121.5614 324° Northwest 425 489 27,700 -1,020 Descending Oakland Center
10:26AM 36.3906 -121.6372 324° Northwest 397 457 26,900 -960 Descending Oakland Center
10:27AM 36.4397 -121.7336 302° West 356 410 25,800 -1,200 Descending Oakland Center
10:28AM 36.5000 -121.8333 307° West 345 397 24,600 -1,140 Descending Northern Cal TRACON
10:29AM 36.5667 -121.8833 329° Northwest 358 412 23,800 -1,260 Descending Northern Cal TRACON
10:30AM 36.6500 -121.9167 342° North 346 398 22,400 -1,560 Descending Northern Cal TRACON
10:31AM 36.7500 -121.9667 338° Northwest 340 391 20,700 -1,980 Descending Northern Cal TRACON
10:32AM 36.8500 -121.9833 352° North 333 383 18,300 -2,400 Descending Northern Cal TRACON
10:33AM 36.9333 -122.0167 342° North 326 375 16,000 -2,580 Descending Northern Cal TRACON
10:34AM 37.0167 -122.0333 351° North 315 362 13,500 -2,580 Descending Northern Cal TRACON
10:35AM 37.1000 -122.0667 342° North 305 351 11,100 -1,860 Descending Northern Cal TRACON
10:35AM 37.1500 -122.1000 332° Northwest 256 295 10,000 -1,020 Descending Northern Cal TRACON
10:36AM 37.1653 -122.1286 304° West 251 289 9,600 -720 Descending Oakland Center
10:37AM 37.2158 -122.1831 319° Northwest 240 276 8,900 -1,020 Descending Oakland Center
10:38AM 37.2742 -122.2436 320° Northwest 231 266 7,600 -1,320 Descending Oakland Center
10:39AM 37.3244 -122.2944 321° Northwest 230 265 6,200 -840 Descending Oakland Center
10:40AM 37.3683 -122.2375 46° Northeast 242 278 5,900 -180 Descending Oakland Center
10:41AM 37.3858 -122.1531 75° East 248 285 5,900  Level Oakland Center
10:42AM 37.4058 -122.0853 70° East 221 254 5,900 -720 Level Oakland Center
10:43AM 37.4575 -122.0694 14° North 209 241 4,500 -1,020 Descending Oakland Center
10:44AM 37.5025 -122.1047 328° Northwest 196 226 3,900 -720 Descending Oakland Center
10:45AM 37.5283 -122.1592 301° West 188 216 3,100 -780 Descending Oakland Center
10:46AM 37.5667 -122.2333 303° West 177 204 2,400 -780 Descending Northern Cal TRACON
10:47AM 37.5833 -122.2667 302° West 148 170 1,600 -780 Descending Northern Cal TRACON
10:48AM 37.6000 -122.3167 293° West 145 167 1,000 -720 Descending Northern Cal TRACON
10:51AM 37.6167 -122.3667 322° Northwest  Level FlightAware Approximate
10:58AM 37.6191 -122.3752 322° Northwest  Level Estimated